sensor_id;sensor_type;location;lat;lon;timestamp;P1;durP1;ratioP1;P2;durP2;ratioP2
58974;SDS011;44751;52.236;5.178;2023-04-15T00:02:17;10.45;;;5.40;;
58974;SDS011;44751;52.236;5.178;2023-04-15T00:05:07;9.02;;;5.43;;
58974;SDS011;44751;52.236;5.178;2023-04-15T00:07:42;6.63;;;4.97;;
58974;SDS011;44751;52.236;5.178;2023-04-15T00:10:32;7.22;;;5.05;;
58974;SDS011;44751;52.236;5.178;2023-04-15T00:13:02;7.78;;;4.85;;
58974;SDS011;44751;52.236;5.178;2023-04-15T00:15:32;11.23;;;5.93;;
58974;SDS011;44751;52.236;5.178;2023-04-15T00:18:04;7.00;;;5.07;;
58974;SDS011;44751;52.236;5.178;2023-04-15T00:20:31;7.38;;;4.93;;
58974;SDS011;44751;52.236;5.178;2023-04-15T00:23:00;10.75;;;5.20;;
58974;SDS011;44751;52.236;5.178;2023-04-15T00:25:30;6.95;;;4.70;;
58974;SDS011;44751;52.236;5.178;2023-04-15T00:27:57;10.32;;;5.15;;
58974;SDS011;44751;52.236;5.178;2023-04-15T00:30:26;7.03;;;4.95;;
58974;SDS011;44751;52.236;5.178;2023-04-15T00:32:53;8.63;;;4.47;;
58974;SDS011;44751;52.236;5.178;2023-04-15T00:35:19;8.15;;;4.80;;
58974;SDS011;44751;52.236;5.178;2023-04-15T00:37:50;7.10;;;4.90;;
58974;SDS011;44751;52.236;5.178;2023-04-15T00:40:17;8.77;;;5.40;;
58974;SDS011;44751;52.236;5.178;2023-04-15T00:42:44;11.38;;;5.25;;
58974;SDS011;44751;52.236;5.178;2023-04-15T00:45:11;9.85;;;5.00;;
58974;SDS011;44751;52.236;5.178;2023-04-15T00:47:38;10.18;;;5.18;;
58974;SDS011;44751;52.236;5.178;2023-04-15T00:50:12;7.45;;;4.55;;
58974;SDS011;44751;52.236;5.178;2023-04-15T00:52:39;10.75;;;5.32;;
58974;SDS011;44751;52.236;5.178;2023-04-15T00:55:06;9.32;;;5.50;;
58974;SDS011;44751;52.236;5.178;2023-04-15T00:57:34;9.18;;;5.20;;
58974;SDS011;44751;52.236;5.178;2023-04-15T01:00:03;10.35;;;5.40;;
58974;SDS011;44751;52.236;5.178;2023-04-15T01:02:35;10.07;;;5.20;;
58974;SDS011;44751;52.236;5.178;2023-04-15T01:05:09;6.53;;;4.82;;
58974;SDS011;44751;52.236;5.178;2023-04-15T01:08:18;8.23;;;4.85;;
58974;SDS011;44751;52.236;5.178;2023-04-15T01:10:50;7.35;;;5.15;;
58974;SDS011;44751;52.236;5.178;2023-04-15T01:13:19;8.55;;;4.97;;
58974;SDS011;44751;52.236;5.178;2023-04-15T01:19:00;7.72;;;5.13;;
58974;SDS011;44751;52.236;5.178;2023-04-15T01:21:28;8.70;;;5.53;;
58974;SDS011;44751;52.236;5.178;2023-04-15T01:23:55;10.55;;;5.70;;
58974;SDS011;44751;52.236;5.178;2023-04-15T01:26:22;14.27;;;6.25;;
58974;SDS011;44751;52.236;5.178;2023-04-15T01:28:54;8.82;;;5.53;;
58974;SDS011;44751;52.236;5.178;2023-04-15T01:31:21;7.22;;;4.90;;
58974;SDS011;44751;52.236;5.178;2023-04-15T01:33:47;8.57;;;5.85;;
58974;SDS011;44751;52.236;5.178;2023-04-15T01:36:14;9.50;;;5.55;;
58974;SDS011;44751;52.236;5.178;2023-04-15T01:38:40;8.90;;;5.43;;
58974;SDS011;44751;52.236;5.178;2023-04-15T01:41:13;8.98;;;5.75;;
58974;SDS011;44751;52.236;5.178;2023-04-15T01:43:39;8.70;;;5.20;;
58974;SDS011;44751;52.236;5.178;2023-04-15T01:46:06;11.13;;;5.57;;
58974;SDS011;44751;52.236;5.178;2023-04-15T01:48:32;8.63;;;5.20;;
58974;SDS011;44751;52.236;5.178;2023-04-15T01:50:59;9.63;;;5.63;;
58974;SDS011;44751;52.236;5.178;2023-04-15T01:53:30;9.95;;;5.72;;
58974;SDS011;44751;52.236;5.178;2023-04-15T01:55:56;8.05;;;5.30;;
58974;SDS011;44751;52.236;5.178;2023-04-15T01:58:23;8.98;;;5.70;;
58974;SDS011;44751;52.236;5.178;2023-04-15T02:00:49;11.00;;;5.07;;
58974;SDS011;44751;52.236;5.178;2023-04-15T02:03:16;10.73;;;5.60;;
58974;SDS011;44751;52.236;5.178;2023-04-15T02:05:53;10.10;;;5.45;;
58974;SDS011;44751;52.236;5.178;2023-04-15T02:08:45;8.60;;;5.30;;
58974;SDS011;44751;52.236;5.178;2023-04-15T02:14:58;8.70;;;5.03;;
58974;SDS011;44751;52.236;5.178;2023-04-15T02:17:41;7.90;;;4.83;;
58974;SDS011;44751;52.236;5.178;2023-04-15T02:20:31;7.85;;;5.38;;
58974;SDS011;44751;52.236;5.178;2023-04-15T02:23:19;7.95;;;5.32;;
58974;SDS011;44751;52.236;5.178;2023-04-15T02:25:57;9.38;;;5.63;;
58974;SDS011;44751;52.236;5.178;2023-04-15T02:28:38;9.43;;;5.43;;
58974;SDS011;44751;52.236;5.178;2023-04-15T02:31:09;8.25;;;5.57;;
58974;SDS011;44751;52.236;5.178;2023-04-15T02:33:43;9.68;;;5.22;;
58974;SDS011;44751;52.236;5.178;2023-04-15T02:36:34;9.05;;;5.60;;
58974;SDS011;44751;52.236;5.178;2023-04-15T02:39:01;13.32;;;5.63;;
58974;SDS011;44751;52.236;5.178;2023-04-15T02:41:33;9.60;;;5.80;;
58974;SDS011;44751;52.236;5.178;2023-04-15T02:44:00;9.80;;;5.97;;
58974;SDS011;44751;52.236;5.178;2023-04-15T02:46:27;7.82;;;5.38;;
58974;SDS011;44751;52.236;5.178;2023-04-15T02:48:57;8.50;;;5.75;;
58974;SDS011;44751;52.236;5.178;2023-04-15T02:51:23;9.35;;;5.80;;
58974;SDS011;44751;52.236;5.178;2023-04-15T02:53:56;9.30;;;5.65;;
58974;SDS011;44751;52.236;5.178;2023-04-15T02:56:23;8.20;;;5.85;;
58974;SDS011;44751;52.236;5.178;2023-04-15T02:58:51;9.43;;;5.50;;
58974;SDS011;44751;52.236;5.178;2023-04-15T03:04:09;12.35;;;5.65;;
58974;SDS011;44751;52.236;5.178;2023-04-15T03:15:38;8.48;;;5.72;;
58974;SDS011;44751;52.236;5.178;2023-04-15T03:18:10;9.18;;;5.75;;
58974;SDS011;44751;52.236;5.178;2023-04-15T03:20:55;9.27;;;5.30;;
58974;SDS011;44751;52.236;5.178;2023-04-15T03:23:27;10.95;;;6.32;;
58974;SDS011;44751;52.236;5.178;2023-04-15T03:25:56;10.10;;;6.13;;
58974;SDS011;44751;52.236;5.178;2023-04-15T03:28:25;9.95;;;5.68;;
58974;SDS011;44751;52.236;5.178;2023-04-15T03:30:53;7.82;;;5.57;;
58974;SDS011;44751;52.236;5.178;2023-04-15T03:33:20;10.50;;;5.97;;
58974;SDS011;44751;52.236;5.178;2023-04-15T03:35:46;12.05;;;6.00;;
58974;SDS011;44751;52.236;5.178;2023-04-15T03:38:12;8.82;;;5.93;;
58974;SDS011;44751;52.236;5.178;2023-04-15T03:40:46;9.00;;;5.80;;
58974;SDS011;44751;52.236;5.178;2023-04-15T03:43:12;8.55;;;5.22;;
58974;SDS011;44751;52.236;5.178;2023-04-15T03:45:46;10.00;;;5.68;;
58974;SDS011;44751;52.236;5.178;2023-04-15T03:48:28;9.35;;;5.90;;
58974;SDS011;44751;52.236;5.178;2023-04-15T03:50:55;7.93;;;5.82;;
58974;SDS011;44751;52.236;5.178;2023-04-15T03:53:23;10.07;;;5.95;;
58974;SDS011;44751;52.236;5.178;2023-04-15T03:55:55;12.45;;;6.43;;
58974;SDS011;44751;52.236;5.178;2023-04-15T03:58:24;9.15;;;6.78;;
58974;SDS011;44751;52.236;5.178;2023-04-15T04:00:50;9.65;;;6.38;;
58974;SDS011;44751;52.236;5.178;2023-04-15T04:03:17;10.15;;;6.57;;
58974;SDS011;44751;52.236;5.178;2023-04-15T04:05:48;9.60;;;6.30;;
58974;SDS011;44751;52.236;5.178;2023-04-15T04:08:27;12.32;;;6.72;;
58974;SDS011;44751;52.236;5.178;2023-04-15T04:10:53;9.43;;;6.72;;
58974;SDS011;44751;52.236;5.178;2023-04-15T04:13:20;10.00;;;6.57;;
58974;SDS011;44751;52.236;5.178;2023-04-15T04:15:49;9.05;;;5.90;;
58974;SDS011;44751;52.236;5.178;2023-04-15T04:18:15;10.80;;;6.47;;
58974;SDS011;44751;52.236;5.178;2023-04-15T04:20:41;8.85;;;6.45;;
58974;SDS011;44751;52.236;5.178;2023-04-15T04:23:08;13.30;;;7.22;;
58974;SDS011;44751;52.236;5.178;2023-04-15T04:25:34;12.13;;;6.57;;
58974;SDS011;44751;52.236;5.178;2023-04-15T04:28:01;10.93;;;6.60;;
58974;SDS011;44751;52.236;5.178;2023-04-15T04:30:35;8.63;;;6.43;;
58974;SDS011;44751;52.236;5.178;2023-04-15T04:33:02;9.02;;;7.15;;
58974;SDS011;44751;52.236;5.178;2023-04-15T04:35:29;11.27;;;7.40;;
58974;SDS011;44751;52.236;5.178;2023-04-15T04:37:57;9.48;;;6.55;;
58974;SDS011;44751;52.236;5.178;2023-04-15T04:40:24;10.73;;;7.07;;
58974;SDS011;44751;52.236;5.178;2023-04-15T04:42:53;9.07;;;6.60;;
58974;SDS011;44751;52.236;5.178;2023-04-15T04:45:20;11.85;;;6.85;;
58974;SDS011;44751;52.236;5.178;2023-04-15T04:47:46;10.75;;;7.07;;
58974;SDS011;44751;52.236;5.178;2023-04-15T04:50:13;10.55;;;7.03;;
58974;SDS011;44751;52.236;5.178;2023-04-15T04:52:43;11.38;;;7.45;;
58974;SDS011;44751;52.236;5.178;2023-04-15T04:55:09;12.43;;;7.15;;
58974;SDS011;44751;52.236;5.178;2023-04-15T04:57:39;10.80;;;7.03;;
58974;SDS011;44751;52.236;5.178;2023-04-15T05:00:14;8.63;;;6.63;;
58974;SDS011;44751;52.236;5.178;2023-04-15T05:02:55;8.85;;;6.43;;
58974;SDS011;44751;52.236;5.178;2023-04-15T05:05:38;10.88;;;7.03;;
58974;SDS011;44751;52.236;5.178;2023-04-15T05:08:05;9.05;;;6.95;;
58974;SDS011;44751;52.236;5.178;2023-04-15T06:07:26;12.43;;;9.23;;
58974;SDS011;44751;52.236;5.178;2023-04-15T06:09:53;19.02;;;10.27;;
58974;SDS011;44751;52.236;5.178;2023-04-15T09:34:34;4.05;;;2.22;;
58974;SDS011;44751;52.236;5.178;2023-04-15T09:37:06;2.88;;;2.00;;
58974;SDS011;44751;52.236;5.178;2023-04-15T09:42:34;3.70;;;2.10;;
58974;SDS011;44751;52.236;5.178;2023-04-15T09:45:11;2.30;;;2.10;;
58974;SDS011;44751;52.236;5.178;2023-04-15T09:53:26;3.92;;;2.80;;
58974;SDS011;44751;52.236;5.178;2023-04-15T09:55:59;3.30;;;2.55;;
58974;SDS011;44751;52.236;5.178;2023-04-15T09:58:29;3.20;;;2.90;;
58974;SDS011;44751;52.236;5.178;2023-04-15T10:01:07;4.32;;;3.05;;
58974;SDS011;44751;52.236;5.178;2023-04-15T10:03:35;3.58;;;2.88;;
58974;SDS011;44751;52.236;5.178;2023-04-15T10:06:02;3.22;;;2.90;;
58974;SDS011;44751;52.236;5.178;2023-04-15T10:08:30;3.58;;;3.20;;
58974;SDS011;44751;52.236;5.178;2023-04-15T10:11:00;3.70;;;3.30;;
58974;SDS011;44751;52.236;5.178;2023-04-15T10:13:35;5.15;;;3.38;;
58974;SDS011;44751;52.236;5.178;2023-04-15T10:16:10;5.07;;;3.97;;
58974;SDS011;44751;52.236;5.178;2023-04-15T10:18:46;4.32;;;3.92;;
58974;SDS011;44751;52.236;5.178;2023-04-15T10:21:16;4.60;;;3.92;;
58974;SDS011;44751;52.236;5.178;2023-04-15T10:23:51;6.22;;;4.35;;
58974;SDS011;44751;52.236;5.178;2023-04-15T10:26:23;5.30;;;4.00;;
58974;SDS011;44751;52.236;5.178;2023-04-15T10:28:50;4.60;;;4.03;;
58974;SDS011;44751;52.236;5.178;2023-04-15T10:31:20;6.57;;;4.53;;
58974;SDS011;44751;52.236;5.178;2023-04-15T10:33:57;5.30;;;4.20;;
58974;SDS011;44751;52.236;5.178;2023-04-15T10:36:30;5.95;;;4.40;;
58974;SDS011;44751;52.236;5.178;2023-04-15T10:41:33;6.22;;;4.75;;
58974;SDS011;44751;52.236;5.178;2023-04-15T10:44:01;5.45;;;4.20;;
58974;SDS011;44751;52.236;5.178;2023-04-15T10:51:40;5.32;;;3.88;;
58974;SDS011;44751;52.236;5.178;2023-04-15T10:54:08;6.80;;;4.13;;
58974;SDS011;44751;52.236;5.178;2023-04-15T10:56:50;8.00;;;4.35;;
58974;SDS011;44751;52.236;5.178;2023-04-15T11:07:50;5.20;;;4.60;;
58974;SDS011;44751;52.236;5.178;2023-04-15T11:15:37;6.40;;;4.00;;
58974;SDS011;44751;52.236;5.178;2023-04-15T11:20:47;5.68;;;3.55;;
58974;SDS011;44751;52.236;5.178;2023-04-15T11:23:36;3.80;;;2.92;;
58974;SDS011;44751;52.236;5.178;2023-04-15T11:26:10;3.60;;;2.35;;
58974;SDS011;44751;52.236;5.178;2023-04-15T11:28:37;3.92;;;2.55;;
58974;SDS011;44751;52.236;5.178;2023-04-15T11:31:12;3.40;;;2.13;;
58974;SDS011;44751;52.236;5.178;2023-04-15T11:33:53;4.13;;;2.47;;
58974;SDS011;44751;52.236;5.178;2023-04-15T11:36:28;3.55;;;2.35;;
58974;SDS011;44751;52.236;5.178;2023-04-15T11:39:00;4.93;;;2.72;;
58974;SDS011;44751;52.236;5.178;2023-04-15T11:41:26;4.00;;;2.75;;
58974;SDS011;44751;52.236;5.178;2023-04-15T11:43:53;3.78;;;2.67;;
58974;SDS011;44751;52.236;5.178;2023-04-15T11:46:20;4.78;;;2.60;;
58974;SDS011;44751;52.236;5.178;2023-04-15T11:48:54;7.03;;;3.03;;
58974;SDS011;44751;52.236;5.178;2023-04-15T11:51:20;3.13;;;2.40;;
58974;SDS011;44751;52.236;5.178;2023-04-15T11:53:48;5.32;;;2.45;;
58974;SDS011;44751;52.236;5.178;2023-04-15T11:56:17;3.10;;;2.50;;
58974;SDS011;44751;52.236;5.178;2023-04-15T11:58:58;3.55;;;2.20;;
58974;SDS011;44751;52.236;5.178;2023-04-15T12:01:32;6.28;;;2.50;;
58974;SDS011;44751;52.236;5.178;2023-04-15T12:04:12;5.43;;;2.40;;
58974;SDS011;44751;52.236;5.178;2023-04-15T12:06:41;3.47;;;2.25;;
58974;SDS011;44751;52.236;5.178;2023-04-15T12:09:14;2.83;;;2.50;;
58974;SDS011;44751;52.236;5.178;2023-04-15T12:11:42;4.40;;;2.63;;
58974;SDS011;44751;52.236;5.178;2023-04-15T12:17:02;5.00;;;3.13;;
58974;SDS011;44751;52.236;5.178;2023-04-15T12:19:30;5.78;;;2.78;;
58974;SDS011;44751;52.236;5.178;2023-04-15T12:22:01;4.72;;;2.72;;
58974;SDS011;44751;52.236;5.178;2023-04-15T12:24:31;4.50;;;2.55;;
58974;SDS011;44751;52.236;5.178;2023-04-15T12:27:06;4.82;;;2.38;;
58974;SDS011;44751;52.236;5.178;2023-04-15T12:29:35;4.55;;;2.65;;
58974;SDS011;44751;52.236;5.178;2023-04-15T12:32:06;4.50;;;2.50;;
58974;SDS011;44751;52.236;5.178;2023-04-15T12:37:05;3.95;;;2.55;;
58974;SDS011;44751;52.236;5.178;2023-04-15T12:39:37;5.22;;;2.42;;
58974;SDS011;44751;52.236;5.178;2023-04-15T12:42:08;4.00;;;2.60;;
58974;SDS011;44751;52.236;5.178;2023-04-15T12:44:35;3.85;;;2.40;;
58974;SDS011;44751;52.236;5.178;2023-04-15T12:47:02;5.00;;;2.60;;
58974;SDS011;44751;52.236;5.178;2023-04-15T12:49:29;8.15;;;2.50;;
58974;SDS011;44751;52.236;5.178;2023-04-15T12:51:57;4.05;;;2.58;;
58974;SDS011;44751;52.236;5.178;2023-04-15T12:54:24;3.67;;;2.35;;
58974;SDS011;44751;52.236;5.178;2023-04-15T12:56:51;2.28;;;2.05;;
58974;SDS011;44751;52.236;5.178;2023-04-15T12:59:18;2.53;;;1.98;;
58974;SDS011;44751;52.236;5.178;2023-04-15T13:01:45;4.40;;;2.00;;
58974;SDS011;44751;52.236;5.178;2023-04-15T13:04:13;2.60;;;1.90;;
58974;SDS011;44751;52.236;5.178;2023-04-15T13:06:40;2.97;;;1.90;;
58974;SDS011;44751;52.236;5.178;2023-04-15T13:09:06;5.25;;;2.15;;
58974;SDS011;44751;52.236;5.178;2023-04-15T13:11:33;4.30;;;2.10;;
58974;SDS011;44751;52.236;5.178;2023-04-15T13:14:00;3.10;;;1.90;;
58974;SDS011;44751;52.236;5.178;2023-04-15T13:16:28;4.32;;;1.70;;
58974;SDS011;44751;52.236;5.178;2023-04-15T13:18:55;2.40;;;1.60;;
58974;SDS011;44751;52.236;5.178;2023-04-15T13:21:22;4.22;;;1.55;;
58974;SDS011;44751;52.236;5.178;2023-04-15T13:23:49;1.83;;;1.38;;
58974;SDS011;44751;52.236;5.178;2023-04-15T13:26:16;1.80;;;1.33;;
58974;SDS011;44751;52.236;5.178;2023-04-15T13:28:43;2.53;;;1.33;;
58974;SDS011;44751;52.236;5.178;2023-04-15T13:31:10;3.03;;;1.25;;
58974;SDS011;44751;52.236;5.178;2023-04-15T13:33:37;4.25;;;1.20;;
58974;SDS011;44751;52.236;5.178;2023-04-15T13:36:03;2.70;;;1.17;;
58974;SDS011;44751;52.236;5.178;2023-04-15T13:38:29;2.88;;;1.02;;
58974;SDS011;44751;52.236;5.178;2023-04-15T13:40:56;2.85;;;1.02;;
58974;SDS011;44751;52.236;5.178;2023-04-15T13:43:22;4.60;;;1.15;;
58974;SDS011;44751;52.236;5.178;2023-04-15T13:45:48;2.60;;;1.20;;
58974;SDS011;44751;52.236;5.178;2023-04-15T13:48:15;2.92;;;1.33;;
58974;SDS011;44751;52.236;5.178;2023-04-15T13:50:42;4.78;;;1.42;;
58974;SDS011;44751;52.236;5.178;2023-04-15T13:53:09;3.22;;;1.40;;
58974;SDS011;44751;52.236;5.178;2023-04-15T13:55:38;3.13;;;1.20;;
58974;SDS011;44751;52.236;5.178;2023-04-15T14:16:32;2.60;;;1.02;;
58974;SDS011;44751;52.236;5.178;2023-04-15T14:38:50;4.43;;;1.23;;
58974;SDS011;44751;52.236;5.178;2023-04-15T14:41:18;2.83;;;1.10;;
58974;SDS011;44751;52.236;5.178;2023-04-15T14:43:45;3.58;;;0.98;;
58974;SDS011;44751;52.236;5.178;2023-04-15T14:46:11;6.00;;;1.00;;
58974;SDS011;44751;52.236;5.178;2023-04-15T14:48:46;3.83;;;1.10;;
58974;SDS011;44751;52.236;5.178;2023-04-15T14:56:23;5.95;;;1.38;;
58974;SDS011;44751;52.236;5.178;2023-04-15T14:58:50;3.33;;;1.30;;
58974;SDS011;44751;52.236;5.178;2023-04-15T15:01:18;7.43;;;1.48;;
58974;SDS011;44751;52.236;5.178;2023-04-15T15:03:45;5.05;;;1.60;;
58974;SDS011;44751;52.236;5.178;2023-04-15T15:06:12;5.22;;;1.20;;
58974;SDS011;44751;52.236;5.178;2023-04-15T15:08:47;5.78;;;1.30;;
58974;SDS011;44751;52.236;5.178;2023-04-15T15:11:14;6.40;;;1.08;;
58974;SDS011;44751;52.236;5.178;2023-04-15T15:13:41;4.97;;;0.90;;
58974;SDS011;44751;52.236;5.178;2023-04-15T15:16:18;6.30;;;1.20;;
58974;SDS011;44751;52.236;5.178;2023-04-15T15:18:44;5.13;;;1.10;;
58974;SDS011;44751;52.236;5.178;2023-04-15T15:21:11;4.10;;;1.00;;
58974;SDS011;44751;52.236;5.178;2023-04-15T15:23:37;4.70;;;1.30;;
58974;SDS011;44751;52.236;5.178;2023-04-15T15:26:04;5.18;;;1.25;;
58974;SDS011;44751;52.236;5.178;2023-04-15T15:28:30;6.85;;;1.27;;
58974;SDS011;44751;52.236;5.178;2023-04-15T15:30:58;4.18;;;1.50;;
58974;SDS011;44751;52.236;5.178;2023-04-15T15:33:25;5.25;;;1.52;;
58974;SDS011;44751;52.236;5.178;2023-04-15T15:35:51;5.05;;;1.30;;
58974;SDS011;44751;52.236;5.178;2023-04-15T15:38:17;6.63;;;1.80;;
58974;SDS011;44751;52.236;5.178;2023-04-15T15:40:44;5.47;;;1.20;;
58974;SDS011;44751;52.236;5.178;2023-04-15T15:43:16;6.07;;;1.30;;
58974;SDS011;44751;52.236;5.178;2023-04-15T15:45:42;7.30;;;1.30;;
58974;SDS011;44751;52.236;5.178;2023-04-15T15:48:08;6.95;;;1.50;;
58974;SDS011;44751;52.236;5.178;2023-04-15T15:50:35;6.88;;;1.30;;
58974;SDS011;44751;52.236;5.178;2023-04-15T15:53:02;7.45;;;1.83;;
58974;SDS011;44751;52.236;5.178;2023-04-15T15:55:28;8.95;;;1.55;;
58974;SDS011;44751;52.236;5.178;2023-04-15T15:57:55;7.65;;;1.48;;
58974;SDS011;44751;52.236;5.178;2023-04-15T16:00:21;10.52;;;2.10;;
58974;SDS011;44751;52.236;5.178;2023-04-15T16:02:48;8.02;;;1.58;;
58974;SDS011;44751;52.236;5.178;2023-04-15T16:05:19;5.95;;;1.50;;
58974;SDS011;44751;52.236;5.178;2023-04-15T16:10:21;7.88;;;1.73;;
58974;SDS011;44751;52.236;5.178;2023-04-15T16:12:47;6.00;;;1.42;;
58974;SDS011;44751;52.236;5.178;2023-04-15T16:15:14;5.47;;;1.52;;
58974;SDS011;44751;52.236;5.178;2023-04-15T16:17:46;3.92;;;1.55;;
58974;SDS011;44751;52.236;5.178;2023-04-15T16:20:22;6.50;;;2.15;;
58974;SDS011;44751;52.236;5.178;2023-04-15T16:22:49;8.40;;;2.30;;
58974;SDS011;44751;52.236;5.178;2023-04-15T16:30:49;9.98;;;1.90;;
58974;SDS011;44751;52.236;5.178;2023-04-15T16:33:15;4.93;;;1.50;;
58974;SDS011;44751;52.236;5.178;2023-04-15T16:35:45;4.95;;;1.60;;
58974;SDS011;44751;52.236;5.178;2023-04-15T16:38:19;7.43;;;1.55;;
58974;SDS011;44751;52.236;5.178;2023-04-15T16:40:47;3.47;;;1.10;;
58974;SDS011;44751;52.236;5.178;2023-04-15T16:43:16;7.80;;;1.35;;
58974;SDS011;44751;52.236;5.178;2023-04-15T16:45:43;4.05;;;1.23;;
58974;SDS011;44751;52.236;5.178;2023-04-15T16:48:14;6.70;;;1.25;;
58974;SDS011;44751;52.236;5.178;2023-04-15T16:50:41;8.20;;;2.13;;
58974;SDS011;44751;52.236;5.178;2023-04-15T16:53:07;7.45;;;1.20;;
58974;SDS011;44751;52.236;5.178;2023-04-15T16:55:38;7.47;;;1.27;;
58974;SDS011;44751;52.236;5.178;2023-04-15T16:58:05;5.07;;;1.15;;
58974;SDS011;44751;52.236;5.178;2023-04-15T17:00:31;4.82;;;1.15;;
58974;SDS011;44751;52.236;5.178;2023-04-15T17:03:00;8.82;;;1.33;;
58974;SDS011;44751;52.236;5.178;2023-04-15T17:05:27;6.97;;;1.38;;
58974;SDS011;44751;52.236;5.178;2023-04-15T17:08:01;7.18;;;1.20;;
58974;SDS011;44751;52.236;5.178;2023-04-15T17:10:35;3.72;;;1.13;;
58974;SDS011;44751;52.236;5.178;2023-04-15T17:13:02;9.27;;;1.60;;
58974;SDS011;44751;52.236;5.178;2023-04-15T17:15:29;6.00;;;1.20;;
58974;SDS011;44751;52.236;5.178;2023-04-15T17:17:58;9.95;;;1.77;;
58974;SDS011;44751;52.236;5.178;2023-04-15T17:20:32;8.25;;;1.40;;
58974;SDS011;44751;52.236;5.178;2023-04-15T17:22:58;4.15;;;1.30;;
58974;SDS011;44751;52.236;5.178;2023-04-15T17:25:24;4.78;;;1.40;;
58974;SDS011;44751;52.236;5.178;2023-04-15T17:27:51;7.30;;;1.40;;
58974;SDS011;44751;52.236;5.178;2023-04-15T17:30:17;7.28;;;1.67;;
58974;SDS011;44751;52.236;5.178;2023-04-15T17:32:53;10.10;;;1.70;;
58974;SDS011;44751;52.236;5.178;2023-04-15T17:35:22;8.55;;;1.33;;
58974;SDS011;44751;52.236;5.178;2023-04-15T17:37:50;7.15;;;1.50;;
58974;SDS011;44751;52.236;5.178;2023-04-15T17:40:16;6.90;;;1.23;;
58974;SDS011;44751;52.236;5.178;2023-04-15T17:42:45;7.80;;;1.48;;
58974;SDS011;44751;52.236;5.178;2023-04-15T17:45:13;7.18;;;1.35;;
58974;SDS011;44751;52.236;5.178;2023-04-15T17:47:42;10.35;;;2.83;;
58974;SDS011;44751;52.236;5.178;2023-04-15T17:50:12;3.20;;;1.20;;
58974;SDS011;44751;52.236;5.178;2023-04-15T17:52:49;9.35;;;1.67;;
58974;SDS011;44751;52.236;5.178;2023-04-15T17:58:08;11.10;;;2.83;;
58974;SDS011;44751;52.236;5.178;2023-04-15T18:00:35;7.10;;;2.20;;
58974;SDS011;44751;52.236;5.178;2023-04-15T18:03:01;10.38;;;3.58;;
58974;SDS011;44751;52.236;5.178;2023-04-15T18:08:03;7.75;;;1.60;;
58974;SDS011;44751;52.236;5.178;2023-04-15T18:13:13;8.15;;;1.48;;
58974;SDS011;44751;52.236;5.178;2023-04-15T18:15:39;6.20;;;1.35;;
58974;SDS011;44751;52.236;5.178;2023-04-15T18:18:07;7.13;;;1.63;;
58974;SDS011;44751;52.236;5.178;2023-04-15T18:20:33;10.77;;;1.38;;
58974;SDS011;44751;52.236;5.178;2023-04-15T18:23:00;7.82;;;1.55;;
58974;SDS011;44751;52.236;5.178;2023-04-15T18:25:34;9.15;;;1.77;;
58974;SDS011;44751;52.236;5.178;2023-04-15T18:28:02;11.10;;;2.40;;
58974;SDS011;44751;52.236;5.178;2023-04-15T18:30:29;7.30;;;1.60;;
58974;SDS011;44751;52.236;5.178;2023-04-15T18:32:55;7.55;;;1.38;;
58974;SDS011;44751;52.236;5.178;2023-04-15T18:35:22;8.23;;;1.88;;
58974;SDS011;44751;52.236;5.178;2023-04-15T18:37:55;12.07;;;1.83;;
58974;SDS011;44751;52.236;5.178;2023-04-15T18:40:22;8.70;;;1.83;;
58974;SDS011;44751;52.236;5.178;2023-04-15T18:42:52;5.95;;;1.23;;
58974;SDS011;44751;52.236;5.178;2023-04-15T18:45:26;8.63;;;1.33;;
58974;SDS011;44751;52.236;5.178;2023-04-15T18:47:53;7.43;;;1.40;;
58974;SDS011;44751;52.236;5.178;2023-04-15T18:50:19;8.63;;;1.40;;
58974;SDS011;44751;52.236;5.178;2023-04-15T18:52:46;8.57;;;1.58;;
58974;SDS011;44751;52.236;5.178;2023-04-15T18:55:13;8.60;;;1.33;;
58974;SDS011;44751;52.236;5.178;2023-04-15T18:57:40;7.07;;;1.40;;
58974;SDS011;44751;52.236;5.178;2023-04-15T19:00:11;13.02;;;2.05;;
58974;SDS011;44751;52.236;5.178;2023-04-15T19:02:39;7.25;;;1.35;;
58974;SDS011;44751;52.236;5.178;2023-04-15T19:05:08;4.28;;;0.80;;
58974;SDS011;44751;52.236;5.178;2023-04-15T19:07:35;6.03;;;1.40;;
58974;SDS011;44751;52.236;5.178;2023-04-15T19:10:04;3.35;;;0.90;;
58974;SDS011;44751;52.236;5.178;2023-04-15T19:12:33;5.68;;;0.95;;
58974;SDS011;44751;52.236;5.178;2023-04-15T19:15:01;7.25;;;1.40;;
58974;SDS011;44751;52.236;5.178;2023-04-15T19:17:28;4.18;;;1.00;;
58974;SDS011;44751;52.236;5.178;2023-04-15T19:20:03;6.68;;;1.20;;
58974;SDS011;44751;52.236;5.178;2023-04-15T19:22:33;7.85;;;1.17;;
58974;SDS011;44751;52.236;5.178;2023-04-15T19:25:02;9.10;;;1.23;;
58974;SDS011;44751;52.236;5.178;2023-04-15T19:27:30;10.30;;;1.30;;
58974;SDS011;44751;52.236;5.178;2023-04-15T19:29:57;5.60;;;1.33;;
58974;SDS011;44751;52.236;5.178;2023-04-15T19:32:27;8.02;;;2.97;;
58974;SDS011;44751;52.236;5.178;2023-04-15T19:34:53;6.75;;;1.33;;
58974;SDS011;44751;52.236;5.178;2023-04-15T19:37:22;4.35;;;1.15;;
58974;SDS011;44751;52.236;5.178;2023-04-15T19:39:49;6.13;;;1.13;;
58974;SDS011;44751;52.236;5.178;2023-04-15T19:42:24;2.83;;;0.85;;
58974;SDS011;44751;52.236;5.178;2023-04-15T19:44:50;6.28;;;1.15;;
58974;SDS011;44751;52.236;5.178;2023-04-15T19:47:17;4.97;;;1.00;;
58974;SDS011;44751;52.236;5.178;2023-04-15T19:49:43;4.03;;;1.13;;
58974;SDS011;44751;52.236;5.178;2023-04-15T19:52:12;5.45;;;1.40;;
58974;SDS011;44751;52.236;5.178;2023-04-15T19:54:45;11.27;;;1.73;;
58974;SDS011;44751;52.236;5.178;2023-04-15T19:59:52;12.02;;;2.85;;
58974;SDS011;44751;52.236;5.178;2023-04-15T20:02:18;6.43;;;1.10;;
58974;SDS011;44751;52.236;5.178;2023-04-15T20:04:50;7.32;;;1.50;;
58974;SDS011;44751;52.236;5.178;2023-04-15T20:07:19;8.88;;;1.65;;
58974;SDS011;44751;52.236;5.178;2023-04-15T20:09:51;9.25;;;1.75;;
58974;SDS011;44751;52.236;5.178;2023-04-15T20:12:23;9.35;;;1.20;;
58974;SDS011;44751;52.236;5.178;2023-04-15T20:14:56;7.18;;;1.17;;
58974;SDS011;44751;52.236;5.178;2023-04-15T20:17:44;8.45;;;1.33;;
58974;SDS011;44751;52.236;5.178;2023-04-15T20:20:12;6.70;;;1.13;;
58974;SDS011;44751;52.236;5.178;2023-04-15T20:22:38;5.15;;;1.23;;
58974;SDS011;44751;52.236;5.178;2023-04-15T20:25:09;5.78;;;1.30;;
58974;SDS011;44751;52.236;5.178;2023-04-15T20:27:36;4.05;;;1.17;;
58974;SDS011;44751;52.236;5.178;2023-04-15T20:30:03;8.23;;;1.70;;
58974;SDS011;44751;52.236;5.178;2023-04-15T20:35:00;10.00;;;1.50;;
58974;SDS011;44751;52.236;5.178;2023-04-15T20:37:31;6.35;;;1.30;;
58974;SDS011;44751;52.236;5.178;2023-04-15T20:40:05;5.50;;;1.92;;
58974;SDS011;44751;52.236;5.178;2023-04-15T20:42:48;5.97;;;1.60;;
58974;SDS011;44751;52.236;5.178;2023-04-15T20:45:17;10.85;;;1.65;;
58974;SDS011;44751;52.236;5.178;2023-04-15T20:47:44;6.63;;;1.30;;
58974;SDS011;44751;52.236;5.178;2023-04-15T20:50:15;8.93;;;1.25;;
58974;SDS011;44751;52.236;5.178;2023-04-15T21:05:46;10.88;;;1.58;;
58974;SDS011;44751;52.236;5.178;2023-04-15T21:08:13;10.70;;;1.33;;
58974;SDS011;44751;52.236;5.178;2023-04-15T21:10:54;10.10;;;1.50;;
58974;SDS011;44751;52.236;5.178;2023-04-15T21:13:24;13.02;;;1.60;;
58974;SDS011;44751;52.236;5.178;2023-04-15T21:15:50;11.27;;;1.52;;
58974;SDS011;44751;52.236;5.178;2023-04-15T21:18:20;8.38;;;1.83;;
58974;SDS011;44751;52.236;5.178;2023-04-15T21:20:57;7.97;;;1.60;;
58974;SDS011;44751;52.236;5.178;2023-04-15T21:23:45;6.40;;;1.50;;
58974;SDS011;44751;52.236;5.178;2023-04-15T21:26:14;9.48;;;1.50;;
58974;SDS011;44751;52.236;5.178;2023-04-15T21:28:43;10.13;;;1.83;;
58974;SDS011;44751;52.236;5.178;2023-04-15T21:31:10;9.55;;;1.45;;
58974;SDS011;44751;52.236;5.178;2023-04-15T21:33:46;10.05;;;2.17;;
58974;SDS011;44751;52.236;5.178;2023-04-15T21:36:12;10.45;;;1.65;;